Latest Weather Observations for Karratha

IDW60801

Issued at 11:35 pm WST Friday 31 October 2014 (issued every 30 minutes, with the page automatically refreshed every 10 minutes)

About weather observations | Map of weather stations | Latest weather observations for WA | Other Formats
Station Details ID: 004083 Name: KARRATHA AERO Lat: -20.71 Lon: 116.77 Height: 5.3 m
Data from the previous 72 hours. | See also: Recent months at Karratha
Date/Time
WST
Temp
°C
App
Temp
°C
Dew
Point
Rel
Hum
%
Delta-T
°C
Wind Press
QNH
hPa
Press
MSL
hPa
Rain
since 9 am
mm
Dir
 
Spd
km/h
Gust
km/h
Spd
kts
Gust
kts
31/11:30pm 26.1 24.7 18.8 64 4.7 W 24 28 13 15 1009.2 1009.2 0.0
31/11:00pm 26.5 24.9 18.4 61 5.2 W 24 28 13 15 1009.5 1009.5 0.0
31/10:30pm 26.6 25.8 18.5 61 5.2 W 20 26 11 14 1009.7 1009.7 0.0
31/10:00pm 27.2 26.3 18.2 58 5.7 WSW 20 26 11 14 1009.9 1009.9 0.0
31/09:30pm 27.6 26.4 18.3 57 5.9 WSW 22 28 12 15 1009.9 1009.9 0.0
31/09:00pm 28.0 27.3 18.7 57 6.0 W 20 26 11 14 1009.6 1009.6 0.0
31/08:30pm 28.2 27.6 19.7 60 5.5 W 22 28 12 15 1009.4 1009.4 0.0
31/08:00pm 28.5 28.7 20.5 62 5.3 W 20 26 11 14 1009.2 1009.2 0.0
31/07:30pm 28.6 28.7 21.1 64 5.0 W 22 26 12 14 1008.8 1008.8 0.0
31/07:00pm 29.0 28.5 20.7 61 5.5 W 24 28 13 15 1008.4 1008.4 0.0
31/06:30pm 29.6 28.7 20.7 58 5.9 W 26 33 14 18 1008.0 1008.0 0.0
31/06:00pm 30.5 28.9 20.7 55 6.5 W 30 35 16 19 1007.7 1007.7 0.0
31/05:30pm 30.8 28.9 21.0 56 6.5 W 32 35 17 19 1007.3 1007.3 0.0
31/05:00pm 31.6 30.0 20.8 52 7.2 W 30 37 16 20 1007.0 1007.0 0.0
31/04:30pm 32.2 29.7 20.1 48 8.0 W 33 41 18 22 1007.0 1007.0 0.0
31/04:00pm 32.2 28.9 20.1 48 8.0 W 37 44 20 24 1006.9 1006.9 0.0
31/03:30pm 32.4 29.5 20.0 48 8.2 W 35 44 19 24 1007.0 1007.0 0.0
31/03:00pm 31.6 28.0 20.2 50 7.6 W 39 46 21 25 1007.1 1007.1 0.0
31/02:30pm 31.8 27.9 20.4 51 7.6 W 41 48 22 26 1007.2 1007.2 0.0
31/02:00pm 32.0 28.5 20.3 50 7.8 W 39 48 21 26 1007.5 1007.5 0.0
31/01:30pm 31.9 28.3 20.2 50 7.8 W 39 50 21 27 1007.8 1007.8 0.0
31/01:00pm 32.0 28.5 20.3 50 7.8 W 39 46 21 25 1008.1 1008.1 0.0
31/12:30pm 31.7 27.8 20.3 50 7.6 W 41 50 22 27 1008.4 1008.4 0.0
31/12:00pm 31.6 28.5 20.5 51 7.4 W 37 46 20 25 1008.7 1008.7 0.0
31/11:30am 32.5 29.6 20.1 48 8.2 W 35 43 19 23 1008.9 1008.9 0.0
31/11:00am 33.2 29.7 17.8 40 9.9 W 33 43 18 23 1009.1 1009.1 0.0
31/10:30am 35.1 30.6 12.7 26 13.5 W 28 35 15 19 1009.4 1009.4 0.0
31/10:00am 36.1 30.5 8.8 19 15.6 W 28 33 15 18 1009.6 1009.6 0.0
31/09:30am 35.2 29.6 10.3 22 14.5 WSW 30 39 16 21 1009.6 1009.6 0.0
31/09:00am 34.0 28.0 8.6 21 14.3 WSW 30 37 16 20 1009.6 1009.6 0.0
31/08:30am 32.2 27.9 11.9 29 11.9 WSW 26 32 14 17 1010.0 1010.0 0.0
31/08:00am 30.2 26.5 13.9 37 9.8 SW 26 32 14 17 1010.1 1010.1 0.0
31/07:30am 28.8 25.2 13.1 38 9.3 SW 24 30 13 16 1010.1 1010.1 0.0
31/07:00am 26.9 24.4 14.0 45 7.7 SW 20 26 11 14 1010.0 1010.0 0.0
31/06:30am 24.8 22.4 15.4 56 5.7 WSW 22 28 12 15 1009.9 1009.9 0.0
31/06:00am 24.2 22.0 15.9 59 5.0 WSW 22 28 12 15 1009.5 1009.5 0.0
31/05:30am 24.2 21.6 15.9 59 5.0 WSW 24 30 13 16 1009.3 1009.3 0.0
31/05:00am 24.4 21.9 16.1 60 5.1 WSW 24 30 13 16 1009.1 1009.1 0.0
31/04:30am 24.8 22.6 16.0 58 5.4 W 22 28 12 15 1008.9 1008.9 0.0
31/04:00am 25.0 23.2 15.6 56 5.7 WSW 19 22 10 12 1008.6 1008.6 0.0
31/03:30am 25.4 23.6 15.4 54 6.0 W 19 22 10 12 1008.4 1008.4 0.0
31/03:00am 25.7 23.8 15.1 52 6.4 WSW 19 22 10 12 1008.3 1008.3 0.0
31/02:30am 26.1 23.8 14.6 49 6.9 WSW 20 24 11 13 1008.3 1008.3 0.0
31/02:00am 26.4 24.3 15.1 49 6.8 WSW 20 24 11 13 1008.4 1008.4 0.0
31/01:30am 26.7 24.0 15.7 51 6.7 WSW 24 30 13 16 1008.4 1008.4 0.0
31/01:00am 26.9 24.2 16.5 53 6.4 WSW 26 32 14 17 1008.7 1008.7 0.0
31/12:30am 27.0 24.4 17.8 57 5.8 WSW 28 33 15 18 1009.0 1009.0 0.0
31/12:00am 27.3 24.6 17.5 55 6.2 W 28 32 15 17 1009.3 1009.3 0.0
 
Date/Time
WST
Temp
°C
App
Temp
°C
Dew
Point
Rel
Hum
%
Delta-T
°C
Wind Press
QNH
hPa
Press
MSL
hPa
Rain
since 9 am
mm
Dir
 
Spd
km/h
Gust
km/h
Spd
kts
Gust
kts
30/11:30pm 27.6 25.3 17.7 54 6.3 W 26 32 14 17 1009.6 1009.6 0.0
30/11:00pm 27.7 25.9 17.8 54 6.3 WSW 24 30 13 16 1009.8 1009.8 0.0
30/10:30pm 27.9 26.4 18.6 57 6.0 W 24 30 13 16 1009.9 1009.9 0.0
30/10:00pm 28.1 26.8 19.1 58 5.8 W 24 30 13 16 1010.0 1010.0 0.0
30/09:30pm 28.3 26.6 19.0 57 6.0 WSW 26 32 14 17 1010.0 1010.0 0.0
30/09:00pm 28.4 27.2 20.1 60 5.4 W 26 33 14 18 1009.8 1009.8 0.0
30/08:30pm 28.5 27.7 20.8 63 5.1 W 26 32 14 17 1009.7 1009.7 0.0
30/08:00pm 28.8 27.7 21.0 62 5.2 W 28 35 15 19 1009.5 1009.5 0.0
30/07:30pm 29.0 28.0 21.2 62 5.2 W 28 33 15 18 1009.1 1009.1 0.0
30/07:00pm 29.2 27.7 20.9 61 5.5 W 30 37 16 20 1008.8 1008.8 0.0
30/06:30pm 29.4 28.5 21.4 62 5.4 W 28 33 15 18 1008.4 1008.4 0.0
30/06:00pm 30.0 28.9 21.1 59 6.0 W 28 35 15 19 1008.1 1008.1 0.0
30/05:30pm 30.3 28.9 22.2 62 5.5 W 33 39 18 21 1007.8 1007.8 0.0
30/05:00pm 31.4 29.0 21.0 54 7.0 W 35 46 19 25 1007.6 1007.6 0.0
30/04:30pm 32.1 29.7 21.0 52 7.4 W 35 43 19 23 1007.3 1007.3 0.0
30/04:00pm 32.4 29.4 20.6 49 7.9 W 37 44 20 24 1007.4 1007.4 0.0
30/03:30pm 32.5 28.9 19.4 46 8.6 W 37 44 20 24 1007.4 1007.4 0.0
30/03:00pm 33.2 29.6 19.3 44 9.2 W 37 43 20 23 1007.5 1007.5 0.0
30/02:30pm 34.0 31.3 19.6 42 9.5 W 33 41 18 22 1007.7 1007.7 0.0
30/02:00pm 34.6 32.1 19.8 41 9.8 W 32 39 17 21 1007.9 1007.9 0.0
30/01:30pm 34.7 33.0 20.6 43 9.5 W 30 35 16 19 1008.2 1008.2 0.0
30/01:00pm 34.9 34.4 20.8 43 9.5 NW 24 32 13 17 1008.5 1008.5 0.0
30/12:30pm 36.1 34.2 17.7 33 11.9 WNW 24 30 13 16 1008.8 1008.8 0.0
30/12:00pm 36.1 33.7 16.3 31 12.6 WNW 24 30 13 16 1009.1 1009.1 0.0
30/11:30am 36.7 33.8 15.2 27 13.5 WNW 24 30 13 16 1009.3 1009.3 0.0
30/11:00am 37.1 33.9 13.2 24 14.6 NW 22 26 12 14 1009.6 1009.6 0.0
30/10:30am 39.7 35.9 3.7 11 19.3 SSW 13 20 7 11 1009.8 1009.8 0.0
30/10:00am 38.5 34.9 5.2 13 18.2 S 13 20 7 11 1010.2 1010.2 0.0
30/09:30am 38.0 33.8 5.9 14 17.7 S 17 28 9 15 1010.6 1010.6 0.0
30/09:00am 36.8 32.9 6.9 16 16.6 SSW 17 24 9 13 1010.7 1010.7 -
30/08:30am 33.9 31.7 9.2 22 14.0 SW 11 19 6 10 1010.8 1010.8 -
30/08:00am 30.1 29.9 14.6 39 9.4 W 9 11 5 6 1010.9 1010.9 -
30/06:30am 28.6 28.4 14.8 43 8.4 W 9 11 5 6 1010.7 1010.7 0.0
30/06:00am 27.1 25.9 15.1 47 7.3 WSW 15 17 8 9 1010.5 1010.5 0.0
30/05:30am 25.5 25.8 16.1 56 5.7 WSW 9 13 5 7 1010.5 1010.5 0.0
30/05:00am 24.5 24.1 16.2 60 5.1 WSW 13 15 7 8 1010.1 1010.1 0.0
30/04:30am 24.7 24.0 16.4 60 5.1 WSW 15 17 8 9 1009.8 1009.8 0.0
30/04:00am 24.9 23.5 17.1 62 4.8 WSW 20 24 11 13 1009.4 1009.4 0.0
30/03:30am 25.1 24.6 17.0 60 5.0 W 15 19 8 10 1009.6 1009.6 0.0
30/03:00am 25.2 24.5 17.4 62 4.9 W 17 20 9 11 1009.4 1009.4 0.0
30/02:30am 25.4 24.8 17.6 62 4.9 WSW 17 20 9 11 1009.4 1009.4 0.0
30/02:00am 25.6 24.6 17.5 61 5.1 WSW 19 22 10 12 1009.2 1009.2 0.0
30/01:30am 25.8 24.7 17.7 61 5.1 WSW 20 24 11 13 1009.1 1009.1 0.0
30/01:00am 26.1 24.2 17.7 60 5.3 WSW 24 28 13 15 1009.2 1009.2 0.0
30/12:30am 26.3 24.1 17.9 60 5.3 WSW 26 32 14 17 1009.2 1009.2 0.0
30/12:00am 26.4 24.3 18.0 60 5.3 WSW 26 32 14 17 1009.5 1009.5 0.0
 
Date/Time
WST
Temp
°C
App
Temp
°C
Dew
Point
Rel
Hum
%
Delta-T
°C
Wind Press
QNH
hPa
Press
MSL
hPa
Rain
since 9 am
mm
Dir
 
Spd
km/h
Gust
km/h
Spd
kts
Gust
kts
29/11:30pm 26.6 24.2 18.2 60 5.3 W 28 32 15 17 1009.8 1009.8 0.0
29/11:00pm 26.8 24.8 18.4 60 5.4 W 26 32 14 17 1010.1 1010.1 0.0
29/10:30pm 27.3 25.3 18.3 58 5.7 W 26 33 14 18 1010.4 1010.4 0.0
29/10:00pm 27.6 24.5 17.5 54 6.4 W 30 35 16 19 1010.5 1010.5 0.0
29/09:30pm 27.8 24.5 17.0 51 6.8 W 30 35 16 19 1010.8 1010.8 0.0
29/09:00pm 27.8 24.9 17.0 51 6.8 W 28 32 15 17 1010.8 1010.8 0.0
29/08:30pm 28.1 25.3 17.3 52 6.8 W 28 35 15 19 1010.8 1010.8 0.0
29/08:00pm 28.2 26.2 18.3 55 6.3 W 26 33 14 18 1010.8 1010.8 0.0
29/07:30pm 28.3 25.3 18.7 56 6.2 W 32 35 17 19 1010.5 1010.5 0.0
29/07:00pm 28.8 26.6 18.6 54 6.6 W 28 33 15 18 1010.5 1010.5 0.0
29/06:30pm 28.8 27.4 20.5 61 5.5 W 28 35 15 19 1010.3 1010.3 0.0
29/06:00pm 29.1 27.5 20.0 58 6.0 W 28 35 15 19 1009.9 1009.9 0.0
29/05:30pm 29.3 27.9 20.5 59 5.8 W 28 33 15 18 1009.8 1009.8 0.0
29/05:00pm 30.1 27.8 18.5 49 7.5 W 28 35 15 19 1009.5 1009.5 0.0
29/04:30pm 31.3 29.7 19.3 49 7.8 W 26 32 14 17 1009.4 1009.4 0.0
29/04:00pm 32.0 30.9 18.6 45 8.7 WNW 22 30 12 16 1009.3 1009.3 0.0
29/03:30pm 32.9 30.5 18.3 42 9.5 W 28 32 15 17 1009.1 1009.1 0.0
29/03:00pm 33.7 32.0 18.2 39 10.1 WNW 24 32 13 17 1009.0 1009.0 0.0
29/02:30pm 33.6 31.3 17.7 38 10.2 WNW 26 32 14 17 1009.1 1009.1 0.0
29/02:00pm 33.3 31.6 19.0 42 9.4 WNW 26 32 14 17 1009.3 1009.3 0.0
29/01:30pm 33.1 31.2 18.5 42 9.5 WNW 26 32 14 17 1009.4 1009.4 0.0
29/01:00pm 33.2 32.4 20.0 45 8.8 WNW 24 28 13 15 1009.6 1009.6 0.0
29/12:30pm 33.5 33.3 20.6 46 8.6 WNW 22 30 12 16 1009.8 1009.8 0.0
29/12:00pm 33.3 33.4 21.1 48 8.2 WNW 22 28 12 15 1010.2 1010.2 0.0
29/11:30am 33.7 34.2 21.2 48 8.4 NW 20 26 11 14 1010.6 1010.6 0.0
29/11:00am 32.8 32.9 20.3 47 8.3 NW 20 26 11 14 1010.9 1010.9 0.0
29/10:30am 32.7 33.6 20.9 49 7.9 WNW 17 22 9 12 1011.2 1011.2 0.0
29/10:00am 32.1 33.2 21.3 53 7.3 WNW 17 22 9 12 1011.4 1011.4 0.0
29/09:30am 32.4 33.7 21.6 53 7.3 WNW 17 20 9 11 1011.6 1011.6 0.0
29/09:00am 30.8 33.3 21.0 56 6.6 NNW 9 15 5 8 1012.0 1012.0 -
29/08:30am 30.0 33.1 21.4 60 5.8 NW 7 11 4 6 1012.2 1012.2 -
29/08:00am 28.9 32.4 22.9 70 4.1 NNW 9 13 5 7 1012.2 1012.2 -
29/07:30am 28.2 32.2 23.8 77 3.0 WNW 9 13 5 7 1012.1 1012.1 -
29/07:00am 27.1 31.5 23.8 82 2.3 WSW 7 13 4 7 1012.1 1012.1 -
29/06:30am 26.7 30.6 24.2 86 1.7 W 11 15 6 8 1011.7 1011.7 -
29/06:00am 25.6 30.8 23.6 89 1.4 SW 2 7 1 4 1011.6 1011.6 -
29/05:30am 24.5 29.2 23.3 93 0.8 SSW 4 9 2 5 1011.4 1011.4 -
29/05:00am 24.8 29.3 23.9 95 0.6 WNW 7 11 4 6 1011.0 1011.0 -
29/04:30am 24.7 28.7 23.7 94 0.7 NW 9 11 5 6 1011.0 1011.0 -
29/04:00am 24.8 28.7 23.6 93 0.8 NW 9 13 5 7 1010.8 1010.8 -
29/03:30am 24.9 28.7 23.5 92 1.0 NNW 9 13 5 7 1010.8 1010.8 -
29/03:00am 25.0 29.4 23.4 91 1.1 N 6 9 3 5 1010.9 1010.9 0.0
29/02:30am 25.2 28.7 23.6 91 1.1 WNW 11 15 6 8 1010.2 1010.2 -
29/02:00am 25.3 29.1 23.4 89 1.3 WNW 9 15 5 8 1010.1 1010.1 -
29/01:30am 25.4 27.6 23.3 88 1.4 W 17 20 9 11 1009.8 1009.8 -
29/01:00am 25.2 28.2 23.4 90 1.2 WNW 13 17 7 9 1009.9 1009.9 -
29/12:30am 25.3 28.4 23.5 90 1.2 WNW 13 17 7 9 1010.1 1010.1 -
29/12:00am 25.5 28.6 23.6 89 1.3 NW 13 17 7 9 1010.3 1010.3 -

Other Formats:

Comma delimited format used in spreadsheet applications
http://www.bom.gov.au/fwo/IDW60801/IDW60801.95307.axf

JavaScript Object Notation format (JSON) in row-major order
http://www.bom.gov.au/fwo/IDW60801/IDW60801.95307.json